Rogart, United Kingdom
Current Conditions -  °F | °C
As of 9:50 PM on Monday 20 Oct 2014 (Local Time) from EGPE Reporting Station
Broken Clouds Broken Clouds  
Wind Chill: 54°   Ceiling: 3800
Heat Index: 54°   Visibility: 6mi
Dew Point: 48°   Wind: 3mph
Humidity: 82%   Direction: NA
Pressure: 29.35"   Gusts: NA
Location:  57.99°N, 4.16°W
Report Text: EGPE 202050Z VRB03KT 9999 BKN038 12/09 Q0994
Loading
Personal Weather Stations






























Interactive Weather Map New forecast layout! Learn more

10-Day Weather Forecast

Advertisements
Track Severe Weather on mobile